Time;durP1;ratioP1;P1;durP2;ratioP2;P2;SDS_P1;SDS_P2;PMS_P1;PMS_P2;Temp;Humidity;BMP_temperature;BMP_pressure;BME280_temperature;BME280_humidity;BME280_pressure;Samples;Min_cycle;Max_cycle;Signal;HPM_P1;HPM_P2
2023/08/12 00:01:05;;;;;;;15.77;7.27;;;;;;;20.01;100.00;28944.16;5023909;28;20083;-73
2023/08/12 00:03:31;;;;;;;20.00;7.97;;;;;;;19.99;100.00;28243.97;5022878;28;20499;-72
2023/08/12 00:06:00;;;;;;;17.88;7.10;;;;;;;20.01;100.00;28944.16;5027526;28;20476;-73
2023/08/12 00:08:25;;;;;;;14.93;7.13;;;;;;;19.97;100.00;28592.56;5022898;28;20167;-72
2023/08/12 00:10:51;;;;;;;19.40;6.90;;;;;;;19.97;100.00;26146.34;5031478;28;20499;-69
2023/08/12 00:13:17;;;;;;;15.03;7.73;;;;;;;19.99;100.00;25798.13;5022695;28;20121;-70
2023/08/12 00:15:43;;;;;;;27.20;7.40;;;;;;;20.01;100.00;26497.56;5023661;28;20176;-70
2023/08/12 00:18:09;;;;;;;15.60;7.05;;;;;;;19.98;100.00;25448.16;5021240;28;20029;-71
2023/08/12 00:20:34;;;;;;;22.50;9.07;;;;;;;19.99;100.00;25448.81;5024516;28;20029;-70
2023/08/12 00:23:00;;;;;;;14.53;7.00;;;;;;;19.95;100.00;25097.78;5023240;28;20135;-69
2023/08/12 00:25:25;;;;;;;19.27;8.07;;;;;;;20.04;100.00;24053.75;5025528;28;20067;-70
2023/08/12 00:27:52;;;;;;;15.90;7.50;;;;;;;20.00;100.00;24750.50;5023916;28;20041;-69
2023/08/12 00:30:17;;;;;;;14.90;7.40;;;;;;;20.07;100.00;24055.03;5025714;28;20045;-70
2023/08/12 00:32:42;;;;;;;18.53;8.43;;;;;;;20.01;100.00;23354.19;5017615;28;20181;-71
2023/08/12 00:35:08;;;;;;;15.80;8.10;;;;;;;20.01;100.00;22306.97;5025828;28;20021;-70
2023/08/12 00:37:33;;;;;;;24.03;8.30;;;;;;;20.01;100.00;21260.03;5022713;28;20029;-69
2023/08/12 00:39:59;;;;;;;19.93;8.23;;;;;;;19.99;100.00;19864.00;5028315;28;20036;-69
2023/08/12 00:42:24;;;;;;;13.73;8.30;;;;;;;19.92;100.00;19861.34;5026241;28;20467;-70
2023/08/12 00:44:50;;;;;;;19.80;8.60;;;;;;;19.94;100.00;19164.59;5026302;28;20613;-69
2023/08/12 00:47:16;;;;;;;18.63;8.63;;;;;;;20.00;100.00;19166.66;5020661;28;20090;-70
2023/08/12 00:49:45;;;;;;;20.15;8.48;;;;;;;19.99;100.00;18468.88;5025475;28;20339;-73
2023/08/12 00:52:12;;;;;;;21.10;8.45;;;;;;;19.98;100.00;18119.91;5023331;28;20061;-73
2023/08/12 00:54:37;;;;;;;22.10;9.18;;;;;;;20.00;100.00;17772.09;5025378;28;20175;-72
2023/08/12 00:57:03;;;;;;;28.00;9.43;;;;;;;20.04;100.00;17424.59;5026051;28;20112;-72
2023/08/12 00:59:28;;;;;;;18.63;9.40;;;;;;;19.98;100.00;18120.06;5020011;28;20030;-73
2023/08/12 01:01:54;;;;;;;16.73;9.37;;;;;;;20.05;100.00;17773.53;5020129;28;20056;-72
2023/08/12 01:04:19;;;;;;;21.33;10.03;;;;;;;20.10;100.00;17426.47;5022060;28;20029;-72
2023/08/12 01:06:45;;;;;;;19.77;10.50;;;;;;;20.09;100.00;18472.22;5025851;28;20100;-72
2023/08/12 01:09:10;;;;;;;19.80;9.37;;;;;;;20.07;100.00;19169.22;5020953;28;20060;-73
2023/08/12 01:11:44;;;;;;;14.80;9.87;;;;;;;20.13;100.00;19171.09;5023895;28;20030;-73
2023/08/12 01:14:22;;;;;;;18.73;9.68;;;;;;;20.09;100.00;19169.72;5021740;28;20152;-72
2023/08/12 01:16:51;;;;;;;22.85;9.70;;;;;;;20.06;100.00;18819.94;5021454;28;20026;-72
2023/08/12 01:19:37;;;;;;;17.50;9.57;;;;;;;20.06;100.00;18471.38;5023876;28;20060;-73
2023/08/12 01:22:04;;;;;;;20.92;9.60;;;;;;;20.08;100.00;18123.16;5022365;28;20029;-73
2023/08/12 01:24:37;;;;;;;21.45;10.32;;;;;;;20.12;100.00;18473.22;5024087;28;20032;-72
2023/08/12 01:27:04;;;;;;;26.23;10.20;;;;;;;20.06;100.00;18471.22;5016662;28;20038;-72
2023/08/12 01:29:30;;;;;;;19.23;9.13;;;;;;;20.08;100.00;18472.06;5022783;28;20025;-73
2023/08/12 01:32:04;;;;;;;19.37;9.57;;;;;;;20.04;100.00;18819.44;5023420;28;20135;-72
2023/08/12 01:34:29;;;;;;;20.52;9.90;;;;;;;20.08;100.00;18471.88;5021788;28;20274;-72
2023/08/12 01:36:56;;;;;;;15.93;8.40;;;;;;;20.01;100.00;18818.25;5016221;28;20034;-72
2023/08/12 01:39:23;;;;;;;22.80;9.32;;;;;;;20.07;100.00;18122.84;5021634;28;20030;-72
2023/08/12 01:41:50;;;;;;;19.50;9.25;;;;;;;20.08;100.00;18472.06;5021935;28;20026;-73
2023/08/12 01:44:16;;;;;;;18.95;9.75;;;;;;;20.05;100.00;19168.34;5021782;28;20021;-72
2023/08/12 01:46:43;;;;;;;20.55;10.20;;;;;;;20.15;100.00;18125.63;5024422;28;20038;-73
2023/08/12 01:49:09;;;;;;;21.88;9.55;;;;;;;20.14;100.00;19520.47;5023345;28;20075;-73
2023/08/12 01:51:34;;;;;;;18.07;9.40;;;;;;;20.12;100.00;20566.44;5022413;28;20037;-72
2023/08/12 01:54:00;;;;;;;15.23;9.00;;;;;;;20.09;100.00;21612.03;5022140;28;20457;-72
2023/08/12 01:56:25;;;;;;;16.67;9.03;;;;;;;20.09;100.00;21612.03;5020397;28;20473;-73
2023/08/12 01:58:50;;;;;;;12.57;9.67;;;;;;;20.14;100.00;20916.13;5022058;28;20038;-73
2023/08/12 02:01:16;;;;;;;16.37;8.97;;;;;;;20.11;100.00;21612.81;5017892;28;20022;-73
2023/08/12 02:03:41;;;;;;;18.43;8.90;;;;;;;20.12;100.00;21962.25;5019235;28;20036;-72
2023/08/12 02:06:06;;;;;;;17.50;9.73;;;;;;;20.15;100.00;22312.50;5027478;28;20063;-72
2023/08/12 02:08:32;;;;;;;16.73;9.53;;;;;;;20.16;100.00;23360.56;5025301;28;20053;-72
2023/08/12 02:10:57;;;;;;;20.67;9.07;;;;;;;20.16;100.00;23360.38;5032423;28;20041;-72
2023/08/12 02:13:22;;;;;;;19.47;9.30;;;;;;;20.22;100.00;22664.41;5021573;28;20069;-72
2023/08/12 02:15:48;;;;;;;18.27;9.70;;;;;;;20.19;100.00;23012.38;5027710;28;20079;-73
2023/08/12 02:18:13;;;;;;;15.77;8.97;;;;;;;20.18;100.00;22313.69;5020708;28;20029;-72
2023/08/12 02:20:40;;;;;;;17.93;8.80;;;;;;;20.22;100.00;22315.25;5021978;28;20502;-73
2023/08/12 02:23:06;;;;;;;19.60;8.95;;;;;;;20.21;100.00;23013.19;5023922;28;20544;-73
2023/08/12 02:25:31;;;;;;;16.20;9.23;;;;;;;20.20;100.00;21965.34;5022962;28;20116;-72
2023/08/12 02:27:56;;;;;;;20.73;9.80;;;;;;;20.23;100.00;22315.66;5019804;28;20104;-72
2023/08/12 02:30:22;;;;;;;19.37;10.50;;;;;;;20.22;100.00;23362.84;5023675;28;20038;-72
2023/08/12 02:32:47;;;;;;;17.03;9.10;;;;;;;20.21;100.00;24061.16;5026382;28;20032;-72
2023/08/12 02:35:12;;;;;;;18.30;10.07;;;;;;;20.25;100.00;23014.81;5028676;28;20079;-72
2023/08/12 02:37:38;;;;;;;19.57;10.40;;;;;;;20.20;100.00;22314.66;5025347;28;20026;-72
2023/08/12 02:40:07;;;;;;;14.73;10.07;;;;;;;20.24;100.00;21268.91;5027330;28;20029;-72
2023/08/12 02:42:32;;;;;;;18.63;10.00;;;;;;;20.25;100.00;20571.00;5021918;28;20026;-72
2023/08/12 02:44:59;;;;;;;22.37;9.47;;;;;;;20.22;100.00;20569.91;5030013;28;20044;-72
2023/08/12 02:47:25;;;;;;;21.75;9.07;;;;;;;20.19;100.00;20219.84;5020432;28;20025;-69
2023/08/12 02:49:50;;;;;;;23.27;9.53;;;;;;;20.21;100.00;19522.72;5037590;28;20398;-69
2023/08/12 02:52:16;;;;;;;22.47;10.47;;;;;;;20.22;100.00;19872.16;5022717;28;20394;-70
2023/08/12 02:54:41;;;;;;;14.83;10.10;;;;;;;20.19;100.00;19522.03;5024042;28;20087;-69
2023/08/12 02:57:06;;;;;;;23.20;10.67;;;;;;;20.25;100.00;18477.50;5024545;28;20036;-70
2023/08/12 02:59:32;;;;;;;22.67;10.83;;;;;;;20.25;100.00;18477.50;5028065;28;20101;-72
2023/08/12 03:01:57;;;;;;;16.73;10.33;;;;;;;20.26;100.00;18826.69;5030956;28;20112;-70
2023/08/12 03:04:22;;;;;;;16.30;10.03;;;;;;;20.23;100.00;18476.84;5025309;28;20087;-70
2023/08/12 03:06:48;;;;;;;17.13;10.70;;;;;;;20.27;100.00;18478.34;5025075;28;20037;-70
2023/08/12 03:09:13;;;;;;;18.00;10.10;;;;;;;20.21;100.00;17430.09;5023543;28;20454;-70
2023/08/12 03:11:39;;;;;;;16.93;9.73;;;;;;;20.21;100.00;14989.91;5025398;28;20024;-69
2023/08/12 03:14:04;;;;;;;17.27;10.47;;;;;;;20.20;100.00;13247.63;5025396;28;20064;-70
2023/08/12 03:16:30;;;;;;;23.27;10.73;;;;;;;20.22;100.00;12551.50;5029262;28;20033;-69
2023/08/12 03:18:56;;;;;;;22.50;10.88;;;;;;;20.15;100.00;11853.34;5023428;28;20021;-69
2023/08/12 03:21:21;;;;;;;21.73;10.23;;;;;;;20.13;100.00;11504.84;5026444;28;20060;-70
2023/08/12 03:23:46;;;;;;;17.70;9.80;;;;;;;20.19;100.00;11158.03;5024877;28;20058;-69
2023/08/12 03:26:12;;;;;;;18.60;10.50;;;;;;;20.16;100.00;10461.13;5023649;28;20053;-69
2023/08/12 03:28:37;;;;;;;22.17;9.67;;;;;;;20.13;100.00;10460.63;5025095;28;20079;-69
2023/08/12 03:31:03;;;;;;;16.23;10.83;;;;;;;20.16;100.00;9765.06;5025985;28;20036;-72
2023/08/12 03:33:28;;;;;;;19.90;11.23;;;;;;;20.16;100.00;9417.19;5026612;28;20452;-69
2023/08/12 03:35:53;;;;;;;23.03;9.80;;;;;;;20.16;100.00;9417.09;5027593;28;20029;-69
2023/08/12 03:38:19;;;;;;;18.80;10.30;;;;;;;20.16;100.00;10113.09;5023579;28;20033;-70
2023/08/12 03:40:44;;;;;;;21.70;10.83;;;;;;;20.19;100.00;10113.66;5022311;28;20033;-70
2023/08/12 03:43:09;;;;;;;16.23;9.80;;;;;;;20.19;100.00;11506.06;5024932;28;20069;-69
2023/08/12 03:45:43;;;;;;;15.70;10.40;;;;;;;20.20;100.00;12202.66;5019684;28;20483;-70
2023/08/12 03:48:10;;;;;;;22.80;10.23;;;;;;;20.15;100.00;13594.69;5024141;28;20075;-69
2023/08/12 03:50:36;;;;;;;;;;;;;;;20.18;100.00;14292.22;5023629;28;20649;-69
2023/08/12 03:53:01;;;;;;;;;;;;;;;20.14;100.00;14291.03;5020912;28;20611;-69
2023/08/12 03:55:26;;;;;;;;;;;;;;;20.17;100.00;13943.44;5054505;28;19914;-71
2023/08/12 03:57:52;;;;;;;;;;;;;;;20.17;100.00;13943.44;5026951;28;19916;-69
2023/08/12 04:00:17;;;;;;;;;;;;;;;20.14;100.00;14639.44;5024778;28;20357;-71
2023/08/12 04:02:43;;;;;;;;;;;;;;;20.21;100.00;14641.44;5027585;28;20365;-69
2023/08/12 04:05:08;;;;;;;;;;;;;;;20.14;100.00;15336.47;5027610;28;19919;-69
2023/08/12 04:07:33;;;;;;;;;;;;;;;20.15;100.00;14639.84;5023028;28;19913;-70
2023/08/12 04:09:59;;;;;;;;;;;;;;;20.14;100.00;14639.56;5029129;28;19923;-70
2023/08/12 04:12:24;;;;;;;;;;;;;;;20.17;100.00;14291.81;5025466;28;19912;-70
2023/08/12 04:14:49;;;;;;;;;;;;;;;20.09;100.00;13941.50;5027785;28;20390;-69
2023/08/12 04:17:14;;;;;;;;;;;;;;;20.19;100.00;13247.25;5030411;28;20054;-70
2023/08/12 04:19:40;;;;;;;;;;;;;;;20.13;100.00;13594.06;5020445;28;21730;-69
2023/08/12 04:22:05;;;;;;;;;;;;;;;20.07;100.00;13244.28;5026651;28;19939;-69
2023/08/12 04:24:30;;;;;;;;;;;;;;;20.04;100.00;13243.53;5023920;28;19979;-70
2023/08/12 04:26:56;;;;;;;;;;;;;;;19.99;100.00;12197.97;5020460;28;19939;-70
2023/08/12 04:29:21;;;;;;;;;;;;;;;20.02;100.00;11154.28;5027217;28;19959;-70
2023/08/12 04:31:46;;;;;;;;;;;;;;;19.96;100.00;11153.12;5025754;28;20417;-73
2023/08/12 04:34:11;;;;;;;;;;;;;;;20.00;100.00;10805.84;5021046;28;20748;-72
2023/08/12 04:36:37;;;;;;;;;;;;;;;19.98;100.00;9761.66;5029096;28;19932;-73
2023/08/12 04:39:02;;;;;;;;;;;;;;;19.99;100.00;10457.78;5025646;28;19928;-73
2023/08/12 04:41:27;;;;;;;;;;;;;;;20.04;100.00;11154.72;5025254;28;19913;-72
2023/08/12 04:43:53;;;;;;;;;;;;;;;19.99;100.00;12545.97;5025386;28;19970;-73
2023/08/12 04:46:18;;;;;;;;;;;;;;;20.01;100.00;12894.59;5023156;28;20003;-74
2023/08/12 04:48:43;;;;;;;;;;;;;;;19.96;100.00;13241.69;5026610;28;19917;-73
2023/08/12 04:51:08;;;;;;;;;;;;;;;19.95;100.00;12893.28;5027333;28;20412;-74
2023/08/12 04:53:34;;;;;;;;;;;;;;;19.99;100.00;11153.66;5055430;28;19920;-73
2023/08/12 04:55:59;;;;;;;;;;;;;;;19.96;100.00;10457.19;5017945;28;19963;-73
2023/08/12 04:58:25;;;;;;;;;;;;;;;19.95;100.00;10456.88;5022807;28;20056;-73
2023/08/12 05:00:51;;;;;;;;;;;;;;;19.91;100.00;10108.19;5027218;28;20367;-73
2023/08/12 05:03:17;;;;;;;;;;;;;;;19.99;100.00;8370.53;5022213;28;19913;-73
2023/08/12 05:05:42;;;;;;;;;;;;;;;19.96;100.00;8022.28;5027736;28;20016;-73
2023/08/12 05:08:07;;;;;;;;;;;;;;;19.92;100.00;6978.75;5023788;28;19928;-72
2023/08/12 05:10:32;;;;;;;;;;;;;;;19.86;100.00;5587.78;5055149;28;19971;-73
2023/08/12 05:12:58;;;;;;;;;;;;;;;19.89;100.00;3851.25;5029061;28;19970;-73
2023/08/12 05:15:23;;;;;;;;;;;;;;;19.89;100.00;2809.50;5026832;28;19924;-73
2023/08/12 05:17:48;;;;;;;;;;;;;;;19.93;100.00;2462.56;5023320;28;19952;-73
2023/08/12 05:20:14;;;;;;;;;;;;;;;19.89;100.00;1420.88;5021671;28;19909;-73
2023/08/12 05:22:39;;;;;;;;;;;;;;;19.91;100.00;1073.94;5024973;28;19914;-72
2023/08/12 05:25:04;;;;;;;;;;;;;;;20.00;100.00;33.16;5029069;28;20349;-72
2023/08/12 05:27:30;;;;;;;;;;;;;;;19.95;100.00;380.00;5022793;28;19963;-72
2023/08/12 05:29:55;;;;;;;;;;;;;;;19.95;100.00;33.00;5055266;28;19917;-72
2023/08/12 05:32:20;;;;;;;;;;;;;;;19.93;100.00;32.94;5022933;28;19917;-72
2023/08/12 05:34:45;;;;;;;;;;;;;;;19.88;100.00;-1007.97;5025757;28;19917;-72
2023/08/12 05:37:10;;;;;;;;;;;;;;;19.91;100.00;-2395.19;5024261;28;19913;-72
2023/08/12 05:39:36;;;;;;;;;;;;;;;19.88;100.00;-3781.84;5022876;28;20393;-72
2023/08/12 05:42:01;;;;;;;;;;;;;;;19.80;100.00;-5167.66;5027231;28;20283;-72
2023/08/12 05:44:26;;;;;;;;;;;;;;;19.81;100.00;-6206.91;5021076;28;19913;-73
2023/08/12 05:46:52;;;;;;;;;;;;;;;19.79;100.00;-6206.78;5055969;28;19916;-72
2023/08/12 05:49:17;;;;;;;;;;;;;;;19.74;100.00;-5860.13;5022334;28;19909;-72
2023/08/12 05:51:43;;;;;;;;;;;;;;;19.70;100.00;-5859.88;5022424;28;19921;-72
2023/08/12 05:54:08;;;;;;;;;;;;;;;19.63;100.00;-5513.09;5019980;28;19916;-73
2023/08/12 05:56:33;;;;;;;;;;;;;;;19.57;100.00;-5859.06;5021673;28;19919;-74
2023/08/12 05:58:58;;;;;;;;;;;;;;;19.56;100.00;-6897.56;5025594;28;20263;-72
2023/08/12 06:01:24;;;;;;;;;;;;;;;19.62;100.00;-7244.25;5023843;28;19924;-74
2023/08/12 06:03:49;;;;;;;;;;;;;;;19.61;100.00;-7244.16;5023883;28;20659;-71
2023/08/12 06:06:14;;;;;;;;;;;;;;;19.64;100.00;-7590.53;5027505;28;19913;-72
2023/08/12 06:08:40;;;;;;;;;;;;;;;19.60;100.00;-7590.16;5025228;28;19925;-74
2023/08/12 06:11:05;;;;;;;;;;;;;;;19.64;100.00;-8282.72;5029279;28;19960;-74
2023/08/12 06:13:30;;;;;;;;;;;;;;;19.64;100.00;-8974.88;5028956;28;19924;-70
2023/08/12 06:15:56;;;;;;;;;;;;;;;19.64;100.00;-8974.81;5033855;28;20354;-72
2023/08/12 06:18:22;;;;;;;;;;;;;;;19.68;100.00;-9321.28;5026492;28;20335;-70
2023/08/12 06:20:47;;;;;;;;;;;;;;;19.67;100.00;-9667.13;5029516;28;19913;-70
2023/08/12 06:23:12;;;;;;;;;;;;;;;19.76;100.00;-10014.25;5027023;28;19912;-71
2023/08/12 06:25:37;;;;;;;;;;;;;;;19.74;100.00;-9322.00;5025516;28;19972;-71
2023/08/12 06:28:04;;;;;;;;;;;;;;;19.73;100.00;-9321.94;5028632;28;19948;-73
2023/08/12 06:30:30;;;;;;;;;;;;;;;19.76;100.00;-9322.22;5025055;28;20302;-73
2023/08/12 06:32:55;;;;;;;;;;;;;;;19.79;100.00;-8976.50;5028865;28;19925;-73
2023/08/12 06:35:20;;;;;;;;;;;;;;;19.85;100.00;-9323.34;5026594;28;19917;-73
2023/08/12 06:37:45;;;;;;;;;;;;;;;19.77;100.00;-8976.34;5025800;28;20273;-71
2023/08/12 06:40:11;;;;;;;;;;;;;;;19.81;100.00;-9322.81;5029496;28;19916;-71
2023/08/12 06:42:36;;;;;;;;;;;;;;;19.80;100.00;-8976.63;5027295;28;19913;-73
2023/08/12 06:45:03;;;;;;;;;;;;;;;19.78;100.00;-9668.56;5026639;28;19960;-73
2023/08/12 06:47:29;;;;;;;;;;;;;;;19.81;100.00;-10360.97;5029425;28;19927;-73
2023/08/12 06:49:55;;;;;;;;;;;;;;;19.87;100.00;-10361.69;5054801;28;20371;-73
2023/08/12 06:52:20;;;;;;;;;;;;;;;19.87;100.00;-9669.59;5028570;28;19923;-73
2023/08/12 06:54:45;;;;;;;;;;;;;;;19.82;100.00;-9323.00;5022900;28;19916;-73
2023/08/12 06:57:11;;;;;;;;;;;;;;;19.78;100.00;-8630.28;5025240;28;20066;-73
2023/08/12 06:59:36;;;;;;;;;;;;;;;19.87;100.00;-8631.25;5027117;28;20286;-73
2023/08/12 07:02:02;;;;;;;;;;;;;;;19.88;100.00;-8285.16;5028811;28;19913;-72
2023/08/12 07:04:28;;;;;;;;;;;;;;;19.93;100.00;-7939.41;5027069;28;19963;-72
2023/08/12 07:06:53;;;;;;;;;;;;;;;19.91;100.00;-7246.66;5024553;28;20414;-72
2023/08/12 07:09:18;;;;;;;;;;;;;;;19.93;100.00;-7246.81;5028798;28;20436;-72
2023/08/12 07:11:43;;;;;;;;;;;;;;;20.03;100.00;-6901.31;5026669;28;19913;-72
2023/08/12 07:14:09;;;;;;;;;;;;;;;20.03;100.00;-6208.38;5027534;28;19918;-72
2023/08/12 07:16:34;;;;;;;;;;;;;;;20.01;100.00;-6901.16;5024519;28;19917;-72
2023/08/12 07:18:59;;;;;;;;;;;;;;;20.03;100.00;-6901.28;5029800;28;20046;-72
2023/08/12 07:21:24;;;;;;;;;;;;;;;20.01;100.00;-6901.16;5023133;28;19921;-73
2023/08/12 07:23:50;;;;;;;;;;;;;;;20.09;100.00;-7248.19;5022880;28;19965;-72
2023/08/12 07:26:15;;;;;;;;;;;;;;;20.10;100.00;-6901.81;5028762;28;20433;-73
2023/08/12 07:28:41;;;;;;;;;;;;;;;20.03;100.00;-5861.94;5024775;28;19936;-72
2023/08/12 07:31:06;;;;;;;;;;;;;;;19.98;100.00;-5515.09;5025304;28;19921;-72
2023/08/12 07:33:31;;;;;;;;;;;;;;;19.86;100.00;-4821.47;5021485;28;19913;-72
2023/08/12 07:35:57;;;;;;;;;;;;;;;19.64;100.00;-3434.69;5027779;28;19962;-73
2023/08/12 07:38:22;;;;;;;;;;;;;;;19.33;100.00;1071.06;5021613;28;19933;-73
2023/08/12 07:40:48;;;;;;;;;;;;;;;19.23;100.00;3498.13;5025215;28;20379;-72
2023/08/12 07:43:13;;;;;;;;;;;;;;;19.13;100.00;5578.91;5028158;28;19913;-70
2023/08/12 07:45:39;;;;;;;;;;;;;;;18.95;100.00;9394.78;5028442;28;19959;-74
2023/08/12 07:48:04;;;;;;;;;;;;;;;18.92;100.00;9741.59;5021747;28;19955;-74
2023/08/12 07:50:29;;;;;;;;;;;;;;;18.94;100.00;10436.53;5027424;28;19964;-74
2023/08/12 07:52:55;;;;;;;;;;;;;;;18.93;100.00;11478.53;5027525;28;19955;-75
2023/08/12 07:55:20;;;;;;;;;;;;;;;18.77;100.00;12169.84;5024686;28;19927;-74
2023/08/12 07:57:45;;;;;;;;;;;;;;;18.83;100.00;13908.91;5022618;28;19913;-75
2023/08/12 08:00:12;;;;;;;;;;;;;;;18.82;100.00;14604.03;5025535;28;19952;-75
2023/08/12 08:02:37;;;;;;;;;;;;;;;18.59;100.00;20510.38;5026025;28;19948;-74
2023/08/12 08:05:02;;;;;;;;;;;;;;;18.47;100.00;22246.41;5026383;28;19960;-72
2023/08/12 08:07:28;;;;;;;;;;;;;;;18.38;100.00;22939.13;5025357;28;20901;-75
2023/08/12 08:09:53;;;;;;;;;;;;;;;18.17;100.00;21886.66;5024559;28;20485;-76
2023/08/12 08:12:18;;;;;;;;;;;;;;;18.06;100.00;21534.50;5028888;28;19913;-75
2023/08/12 08:14:44;;;;;;;;;;;;;;;18.16;100.00;19451.56;5028855;28;19973;-75
2023/08/12 08:17:09;;;;;;;;;;;;;;;18.17;100.00;19104.19;5058019;28;19963;-75
2023/08/12 08:19:34;;;;;;;;;;;;;;;18.18;100.00;21191.38;5023930;28;19949;-75
2023/08/12 08:22:00;;;;;;;;;;;;;;;18.18;100.00;23627.22;5030163;28;20410;-75
2023/08/12 08:24:25;;;;;;;;;;;;;;;18.19;100.00;25716.91;5026581;28;19913;-75
2023/08/12 08:26:50;;;;;;;;;;;;;;;18.22;100.00;28505.84;5059746;28;20290;-75
2023/08/12 08:29:16;;;;;;;;;;;;;;;18.40;100.00;27817.72;5028734;28;20370;-74
2023/08/12 08:31:41;;;;;;;;;;;;;;;18.42;100.00;28167.34;5024783;28;19963;-72
2023/08/12 08:34:06;;;;;;;;;;;;;;;18.50;100.00;31659.56;5026395;28;19920;-72
2023/08/12 08:36:32;;;;;;;;;;;;;;;18.56;100.00;32361.00;5027779;28;19923;-72
2023/08/12 08:38:57;;;;;;;;;;;;;;;18.65;100.00;35510.03;5026470;28;19917;-73
2023/08/12 08:41:23;;;;;;;;;;;;;;;18.88;100.00;35873.31;5026827;28;19951;-73
2023/08/12 08:43:49;;;;;;;;;;;;;;;18.97;100.00;40427.31;5028372;28;19917;-72
2023/08/12 08:46:16;;;;;;;;;;;;;;;19.25;100.00;40446.28;5024178;28;19917;-70
2023/08/12 08:48:42;;;;;;;;;;;;;;;19.25;100.00;50966.84;5024998;28;19967;-72
2023/08/12 08:51:08;;;;;;;;;;;;;;;19.28;100.00;57295.56;5025948;28;19920;-72
2023/08/12 08:53:36;;;;;;;;;;;;;;;19.35;100.00;63992.19;5026131;28;19917;-72
2023/08/12 08:56:02;;;;;;;;;;;;;;;19.65;100.00;53813.38;5027374;28;20290;-73
2023/08/12 08:58:27;;;;;;;;;;;;;;;20.07;100.00;55259.28;5026994;28;19984;-73
2023/08/12 09:00:52;;;;;;;;;;;;;;;20.22;100.00;62321.78;5025461;28;20396;-71
2023/08/12 09:03:19;;;;;;;;;;;;;;;20.30;100.00;68331.03;5027152;28;19961;-73
2023/08/12 09:05:44;;;;;;;;;;;;;;;20.37;100.00;75765.91;5023704;28;20011;-73
2023/08/12 09:08:11;;;;;;;;;;;;;;;20.42;100.00;84632.47;5028350;28;20007;-72
2023/08/12 09:10:36;;;;;;;;;;;;;;;20.62;100.00;85015.66;5029471;28;20344;-73
2023/08/12 09:13:02;;;;;;;;;;;;;;;20.71;100.00;91423.53;5023767;28;20008;-74
2023/08/12 09:15:27;;;;;;;;;;;;;;;20.76;100.00;104253.69;5024825;28;19996;-73
2023/08/12 09:17:52;;;;;;;;;;;;;;;21.06;100.00;96817.81;5024328;28;20370;-73
2023/08/12 09:20:17;;;;;;;;;;;;;;;21.24;100.00;104337.13;5024860;28;20554;-70
2023/08/12 09:22:43;;;;;;;;;;;;;;;21.42;100.00;116527.47;5026587;28;19924;-73
2023/08/12 09:25:09;;;;;;;;;;;;;;;21.56;100.00;115121.84;5024442;28;20290;-72
2023/08/12 09:27:35;;;;;;;;;;;;;;;21.64;100.00;128412.56;5026557;28;20011;-73
2023/08/12 09:30:02;;;;;;;;;;;;;;;21.82;100.00;135646.47;5058903;28;20011;-72
2023/08/12 09:32:28;;;;;;;;;;;;;;;22.01;100.00;156991.78;5028284;28;19913;-70
2023/08/12 09:34:54;;;;;;;;;;;;;;;22.06;100.00;157006.16;5024016;28;20390;-72
2023/08/12 09:37:20;;;;;;;;;;;;;;;22.18;100.00;157037.50;5021697;28;19914;-73
2023/08/12 09:39:46;;;;;;;;;;;;;;;22.70;100.00;157172.09;5020840;28;20268;-75
2023/08/12 09:42:12;;;;;;;;;;;;;;;22.41;100.00;157097.56;5024807;28;19914;-74
2023/08/12 09:44:59;;;;;;;;;;;;;;;22.41;100.00;157096.28;5029394;28;19919;-74
2023/08/12 09:47:25;;;;;;;;;;;;;;;22.42;100.00;157098.91;5029440;28;19912;-74
2023/08/12 09:49:51;;;;;;;;;;;;;;;22.62;100.00;157151.22;5026447;28;20011;-75
2023/08/12 09:52:17;;;;;;;;;;;;;;;22.89;100.00;157223.06;5028074;28;20382;-75
2023/08/12 09:54:43;;;;;;;;;;;;;;;22.68;100.00;157168.19;5026225;28;20396;-74
2023/08/12 09:57:11;;;;;;;;;;;;;;;22.62;100.00;157152.50;5028666;28;19999;-74
2023/08/12 09:59:37;;;;;;;;;;;;;;;22.32;100.00;157074.09;5024979;28;20214;-75
2023/08/12 10:02:04;;;;;;;;;;;;;;;22.13;100.00;157024.44;5055510;28;20007;-75
2023/08/12 10:04:36;;;;;;;;;;;;;;;22.25;100.00;157054.50;5031123;28;19977;-75
2023/08/12 10:07:02;;;;;;;;;;;;;;;22.94;100.00;157234.88;5027512;28;19928;-74
2023/08/12 10:09:27;;;;;;;;;;;;;;;23.26;100.00;157319.84;5027542;28;19914;-74
2023/08/12 10:11:53;;;;;;;;;;;;;;;23.17;100.00;157296.34;5029085;28;19939;-74
2023/08/12 10:14:19;;;;;;;;;;;;;;;22.80;100.00;157198.25;5028415;28;19952;-74
2023/08/12 10:16:45;;;;;;;;;;;;;;;22.92;100.00;157229.59;5026729;28;19913;-75
2023/08/12 10:19:11;;;;;;;;;;;;;;;22.88;100.00;157219.19;5027963;28;19923;-75
2023/08/12 10:21:37;;;;;;;;;;;;;;;22.50;100.00;157121.16;5028508;28;20306;-75
2023/08/12 10:24:03;;;;;;;;;;;;;;;22.26;100.00;157058.38;5026312;28;19916;-74
2023/08/12 10:26:29;;;;;;;;;;;;;;;22.52;100.00;157125.09;5023467;28;19913;-74
2023/08/12 10:28:54;;;;;;;;;;;;;;;22.85;100.00;157212.66;5026070;28;20369;-74
2023/08/12 10:31:20;;;;;;;;;;;;;;;22.93;100.00;157232.22;5028872;28;20294;-75
2023/08/12 10:33:48;;;;;;;;;;;;;;;23.14;100.00;157287.09;5026518;28;19928;-74
2023/08/12 10:36:14;;;;;;;;;;;;;;;23.50;100.00;157382.63;5024419;28;19943;-74
2023/08/12 10:38:40;;;;;;;;;;;;;;;23.66;100.00;157423.13;5024126;28;19913;-74
2023/08/12 10:41:34;;;;;;;;;;;;;;;23.86;100.00;157476.75;5029518;28;19917;-74
2023/08/12 10:44:01;;;;;;;;;;;;;;;23.51;100.00;157383.91;5025925;28;19987;-74
2023/08/12 10:46:26;;;;;;;;;;;;;;;23.51;100.00;157385.22;5024773;28;19917;-74
2023/08/12 10:49:05;;;;;;;;;;;;;;;23.72;100.00;157438.81;5027383;28;20755;-74
2023/08/12 10:51:50;;;;;;;;;;;;;;;23.84;100.00;157470.25;5028046;28;19967;-74
2023/08/12 10:54:16;;;;;;;;;;;;;;;23.92;100.00;157491.19;5027366;28;20256;-74
2023/08/12 10:57:00;;;;;;;;;;;;;;;24.13;100.00;157546.13;5022794;28;19921;-74
2023/08/12 10:59:43;;;;;;;;;;;;;;;23.87;100.00;157479.38;5025124;28;20353;-74
2023/08/12 11:02:15;;;;;;;;;;;;;;;23.89;100.00;157484.66;5028921;28;19920;-74
2023/08/12 11:04:42;;;;;;;;;;;;;;;24.03;100.00;157521.28;5024520;28;20286;-74
2023/08/12 11:07:21;;;;;;;;;;;;;;;24.04;100.00;157523.91;5029857;28;19924;-75
2023/08/12 11:09:52;;;;;;;;;;;;;;;24.05;100.00;157525.19;5024611;28;19959;-74
2023/08/12 11:12:18;;;;;;;;;;;;;;;24.02;100.00;157517.34;5024123;28;20004;-74
2023/08/12 11:14:47;;;;;;;;;;;;;;;23.62;100.00;157412.66;5024748;28;20408;-74
2023/08/12 11:17:13;;;;;;;;;;;;;;;23.88;100.00;157482.06;5027179;28;19960;-75
2023/08/12 11:19:38;;;;;;;;;;;;;;;24.13;100.00;157547.47;5028443;28;19960;-74
2023/08/12 11:22:04;;;;;;;;;;;;;;;24.21;100.00;157568.38;5025052;28;19953;-74
2023/08/12 11:24:31;;;;;;;;;;;;;;;24.05;100.00;157526.50;5025999;28;20580;-75
2023/08/12 11:26:57;;;;;;;;;;;;;;;24.13;100.00;157546.13;5025307;28;19913;-75
2023/08/12 11:29:22;;;;;;;;;;;;;;;24.04;100.00;157523.91;5026697;28;20076;-75
2023/08/12 11:31:47;;;;;;;;;;;;;;;23.85;100.00;157472.84;5025263;28;19928;-75
2023/08/12 11:34:13;;;;;;;;;;;;;;;23.26;100.00;157318.56;5027624;28;19913;-74
2023/08/12 11:36:38;;;;;;;;;;;;;;;23.78;100.00;157455.84;5024645;28;19924;-74
2023/08/12 11:39:03;;;;;;;;;;;;;;;24.05;100.00;157526.50;5025918;28;19913;-74
2023/08/12 11:41:29;;;;;;;;;;;;;;;23.51;100.00;157383.91;5022383;28;19919;-74
2023/08/12 11:43:54;;;;;;;;;;;;;;;24.09;100.00;157536.97;5027664;28;19920;-74
2023/08/12 11:46:19;;;;;;;;;;;;;;;24.29;100.00;157589.31;5028945;28;19974;-74
2023/08/12 11:48:44;;;;;;;;;;;;;;;24.05;100.00;157526.50;5026046;28;20329;-73
2023/08/12 11:51:10;;;;;;;;;;;;;;;24.42;100.00;157623.31;5031030;28;19927;-73
2023/08/12 11:53:35;;;;;;;;;;;;;;;24.50;96.59;157642.94;5024826;28;19917;-74
2023/08/12 11:56:01;;;;;;;;;;;;;;;24.65;95.01;157682.25;5026757;28;19924;-74
2023/08/12 11:58:34;;;;;;;;;;;;;;;24.65;92.36;157682.25;5021986;28;20008;-70
2023/08/12 12:01:00;;;;;;;;;;;;;;;25.21;94.67;157828.81;5023374;28;20286;-72
2023/08/12 12:03:27;;;;;;;;;;;;;;;25.14;91.46;157810.50;5025320;28;19917;-70